Silver Shadow — C6FN6 — position and weather

sailwx.info

Track history (hours):
 
Tides and Currents Weather Stations Pressure Air Temp Water Temp Dewpoint Dewpoint Depression Visibility Wind Speed Wind Dir Waves Ship Positions

Silver Shadow

Operator: V Ships Leisure SAM

Last reported at 2018-May-26 11:46 UTC. Time now 2018-May-26 12:11 UTC.
Position N 58°12' W 135°25'.

Length 186 m; draft 6.1 m.

Type: Ship. MMSI: 308628000.

Date/timePositionNaut miles runAvg speedWind from/ knotsBaromVisibWave heightAir tempDewpointWater temp
2018-May-26 11:46N 58°12' W 135°25'518.6
2018-May-26 11:30N 58°14' W 135°33'917.9
2018-May-26 11:00N 58°18' W 135°48'816.8
2018-May-26 10:30N 58°20' W 136°03'816.2
2018-May-26 10:00N 58°18' W 136°18'1015.7
2018-May-26 09:23N 58°12' W 136°33'717.3
2018-May-26 09:00N 58°07' W 136°42'4917.8
2018-May-26 06:14N 58°37' W 137°56'  
2018-May-18 19:00N 55°30' E 173°18'   090 / 331005.0 5.4 4.0 3.2
Track history (hours):
 
Tides and Currents Weather Stations Pressure Air Temp Water Temp Dewpoint Dewpoint Depression Visibility Wind Speed Wind Dir Waves Ship Positions

Silver Shadow

Operator: V Ships Leisure SAM

Last reported at 2018-May-26 11:46 UTC. Time now 2018-May-26 12:11 UTC.
Position N 58°12' W 135°25'.

Length 186 m; draft 6.1 m.

Type: Ship. MMSI: 308628000.

Date/timePositionNaut miles runAvg speedWind from/ knotsBaromVisibWave heightAir tempDewpointWater temp
2018-May-26 11:46N 58°12' W 135°25'518.6
2018-May-26 11:30N 58°14' W 135°33'917.9
2018-May-26 11:00N 58°18' W 135°48'816.8
2018-May-26 10:30N 58°20' W 136°03'816.2
2018-May-26 10:00N 58°18' W 136°18'1015.7
2018-May-26 09:23N 58°12' W 136°33'717.3
2018-May-26 09:00N 58°07' W 136°42'4917.8
2018-May-26 06:14N 58°37' W 137°56'  
2018-May-18 19:00N 55°30' E 173°18'   090 / 331005.0 5.4 4.0 3.2

Dump ship's entire track history